createdAt,value
2017-11-21T00:00:02.066Z,16.6
2017-11-21T00:05:01.456Z,16.6
2017-11-21T00:10:01.473Z,16.6
2017-11-21T00:15:02.527Z,16.6
2017-11-21T00:20:01.237Z,16.6
2017-11-21T00:25:01.812Z,16.7
2017-11-21T00:30:01.653Z,16.6
2017-11-21T00:35:02.221Z,16.6
2017-11-21T00:40:01.920Z,16.6
2017-11-21T00:45:01.600Z,16.6
2017-11-21T00:50:01.372Z,16.6
2017-11-21T00:55:02.615Z,16.6
2017-11-21T01:00:01.282Z,16.6
2017-11-21T01:05:01.902Z,16.6
2017-11-21T01:10:01.727Z,16.7
2017-11-21T01:15:01.770Z,16.7
2017-11-21T01:20:01.448Z,16.7
2017-11-21T01:25:01.482Z,16.7
2017-11-21T01:30:01.851Z,16.7
2017-11-21T01:35:01.693Z,16.7
2017-11-21T01:40:01.469Z,16.7
2017-11-21T01:45:01.970Z,16.8
2017-11-21T01:50:01.709Z,16.8
2017-11-21T01:55:01.873Z,16.8
2017-11-21T02:00:02.477Z,16.8
2017-11-21T02:05:01.958Z,16.7
2017-11-21T02:10:01.758Z,16.6
2017-11-21T02:15:01.245Z,16.6
2017-11-21T02:20:02.354Z,16.7
2017-11-21T02:25:01.421Z,16.7
2017-11-21T02:30:01.298Z,16.7
2017-11-21T02:35:01.900Z,16.8
2017-11-21T02:40:02.186Z,16.7
2017-11-21T02:45:01.273Z,16.7
2017-11-21T02:50:01.979Z,16.7
2017-11-21T02:55:01.217Z,16.7
2017-11-21T03:00:01.888Z,16.7
2017-11-21T03:05:01.809Z,16.7
2017-11-21T03:10:01.907Z,16.7
2017-11-21T03:15:02.039Z,16.7
2017-11-21T03:20:01.823Z,16.7
2017-11-21T03:25:01.475Z,16.7
2017-11-21T03:30:02.214Z,16.7
2017-11-21T03:35:01.520Z,16.8
2017-11-21T03:40:02.185Z,16.7
2017-11-21T03:45:01.412Z,16.7
2017-11-21T03:50:01.755Z,16.7
2017-11-21T03:55:01.703Z,16.7
2017-11-21T04:00:01.922Z,16.8
2017-11-21T04:05:01.611Z,16.8
2017-11-21T04:10:01.847Z,16.8
2017-11-21T04:15:01.768Z,16.8
2017-11-21T04:20:01.881Z,16.8
2017-11-21T04:25:01.925Z,16.8
2017-11-21T04:30:02.179Z,16.7
2017-11-21T04:35:01.940Z,16.7
2017-11-21T04:40:01.684Z,16.7
2017-11-21T04:45:01.915Z,16.8
2017-11-21T04:50:02.059Z,16.8
2017-11-21T04:55:01.513Z,16.7
2017-11-21T05:00:01.760Z,16.8
2017-11-21T05:05:02.086Z,16.8
2017-11-21T05:10:01.993Z,16.9
2017-11-21T05:15:01.347Z,16.9
2017-11-21T05:20:02.136Z,16.9
2017-11-21T05:25:01.502Z,16.9
2017-11-21T05:30:02.278Z,16.8
2017-11-21T05:35:01.708Z,16.8
2017-11-21T05:40:01.582Z,16.8
2017-11-21T05:45:02.616Z,16.8
2017-11-21T05:50:01.498Z,17
2017-11-21T05:55:02.157Z,17
2017-11-21T06:00:01.298Z,16.9
2017-11-21T06:05:01.956Z,17
2017-11-21T06:10:02.137Z,17
2017-11-21T06:15:01.638Z,17
2017-11-21T06:20:02.412Z,16.9
2017-11-21T06:25:02.066Z,16.9
2017-11-21T06:30:01.135Z,16.9
2017-11-21T06:35:01.657Z,16.9
2017-11-21T06:40:01.759Z,16.9
2017-11-21T06:45:01.394Z,16.9
2017-11-21T06:50:01.427Z,16.9
2017-11-21T06:55:02.041Z,16.9
2017-11-21T07:00:02.102Z,16.9
2017-11-21T07:05:01.884Z,16.9
2017-11-21T07:10:02.295Z,16.8
2017-11-21T07:15:01.627Z,16.8
2017-11-21T07:20:01.483Z,16.8
2017-11-21T07:25:02.534Z,16.8
2017-11-21T07:30:01.576Z,16.8
2017-11-21T07:35:01.632Z,16.8
2017-11-21T07:40:01.594Z,16.8
2017-11-21T07:45:02.640Z,16.8
2017-11-21T07:50:02.012Z,16.7
2017-11-21T07:55:02.136Z,16.8
2017-11-21T08:00:01.178Z,16.8
2017-11-21T08:05:01.691Z,16.7
2017-11-21T08:10:02.028Z,16.7
2017-11-21T08:15:01.573Z,16.8
2017-11-21T08:20:01.819Z,16.7
2017-11-21T08:25:01.347Z,16.7
2017-11-21T08:30:01.399Z,16.6
2017-11-21T08:35:02.322Z,16.7
2017-11-21T08:40:01.992Z,16.7
2017-11-21T08:45:01.380Z,16.7
2017-11-21T08:50:01.352Z,16.7
2017-11-21T08:55:02.251Z,16.7
2017-11-21T09:00:01.918Z,16.4
2017-11-21T09:05:02.027Z,16.5
2017-11-21T09:10:02.043Z,16.6
2017-11-21T09:15:02.525Z,16.5
2017-11-21T09:20:02.178Z,16.3
2017-11-21T09:25:01.296Z,16.3
2017-11-21T09:30:01.459Z,16.4
2017-11-21T09:35:01.926Z,16.4
2017-11-21T09:40:01.760Z,16.6
2017-11-21T09:45:02.156Z,16.6
2017-11-21T09:50:02.580Z,16.4
2017-11-21T09:55:02.041Z,16.4
2017-11-21T10:00:01.186Z,16.2
2017-11-21T10:05:01.430Z,16.4
2017-11-21T10:10:02.308Z,16.4
2017-11-21T10:15:01.307Z,16.4
2017-11-21T10:20:01.926Z,16.4
2017-11-21T10:25:01.299Z,16.4
2017-11-21T10:30:02.395Z,16.3
2017-11-21T10:35:01.658Z,16.3
2017-11-21T10:40:01.433Z,16.2
2017-11-21T10:45:02.005Z,16.2
2017-11-21T10:50:02.131Z,16.2
2017-11-21T10:55:01.810Z,16
2017-11-21T11:00:01.272Z,15.9
2017-11-21T11:05:01.709Z,15.9
2017-11-21T11:10:02.030Z,15.9
2017-11-21T11:15:01.843Z,15.9
2017-11-21T11:20:02.209Z,15.9
2017-11-21T11:25:01.353Z,15.9
2017-11-21T11:30:02.888Z,15.9
2017-11-21T11:35:01.208Z,15.8
2017-11-21T11:40:01.464Z,15.8
2017-11-21T11:45:02.752Z,15.8
2017-11-21T11:50:01.598Z,15.8
2017-11-21T11:55:02.180Z,15.6
2017-11-21T12:00:01.985Z,15.6
2017-11-21T12:05:01.325Z,15.6
2017-11-21T12:10:01.522Z,15.6
2017-11-21T12:15:01.922Z,15.6
2017-11-21T12:20:02.218Z,15.8
2017-11-21T12:25:01.518Z,15.8
2017-11-21T12:30:02.150Z,15.8
2017-11-21T12:35:01.358Z,15.8
2017-11-21T12:40:02.143Z,15.8
2017-11-21T12:45:01.638Z,15.8
2017-11-21T12:50:01.709Z,15.8
2017-11-21T12:55:01.601Z,15.6
2017-11-21T13:00:01.878Z,15.6
2017-11-21T13:05:02.032Z,15.6
2017-11-21T13:10:01.442Z,15.6
2017-11-21T13:15:01.771Z,15.8
2017-11-21T13:20:01.557Z,15.8
2017-11-21T13:25:01.871Z,15.9
2017-11-21T13:30:01.934Z,15.9
2017-11-21T13:35:02.084Z,15.9
2017-11-21T13:40:01.398Z,15.9
2017-11-21T13:45:02.786Z,15.8
2017-11-21T13:50:01.833Z,15.8
2017-11-21T13:55:01.572Z,15.7
2017-11-21T14:00:01.800Z,15.8
2017-11-21T14:05:02.154Z,15.8
2017-11-21T14:10:01.280Z,15.8
2017-11-21T14:15:01.689Z,15.8
2017-11-21T14:20:01.337Z,15.8
2017-11-21T14:25:01.697Z,15.7
2017-11-21T14:30:01.777Z,15.7
2017-11-21T14:35:01.471Z,15.7
2017-11-21T14:40:02.191Z,15.8
2017-11-21T14:45:01.831Z,15.8
2017-11-21T14:50:01.523Z,15.7
2017-11-21T14:55:02.536Z,15.7
2017-11-21T15:00:02.125Z,15.7
2017-11-21T15:05:02.243Z,15.7
2017-11-21T15:10:01.524Z,15.8
2017-11-21T15:15:01.949Z,15.8
2017-11-21T15:20:01.595Z,15.8
2017-11-21T15:25:01.772Z,15.9
2017-11-21T15:30:02.377Z,16.1
2017-11-21T15:35:01.857Z,16
2017-11-21T15:40:02.047Z,16.1
2017-11-21T15:45:02.493Z,16.2
2017-11-21T15:50:01.532Z,16.2
2017-11-21T15:55:01.845Z,16.2
2017-11-21T16:00:01.937Z,16.1
2017-11-21T16:05:02.740Z,16.1
2017-11-21T16:10:01.158Z,16.1
2017-11-21T16:15:01.422Z,16.2
2017-11-21T16:20:01.377Z,16.2
2017-11-21T16:25:02.615Z,16.1
2017-11-21T16:30:01.612Z,16.1
2017-11-21T16:35:01.301Z,16.2
2017-11-21T16:40:02.712Z,16.2
2017-11-21T16:45:01.339Z,16.2
2017-11-21T16:50:01.343Z,16.2
2017-11-21T16:55:01.592Z,16.1
2017-11-21T17:00:02.201Z,16.1
2017-11-21T17:05:01.946Z,16.1
2017-11-21T17:10:01.840Z,16.1
2017-11-21T17:15:01.913Z,16.1
2017-11-21T17:20:02.031Z,16.2
2017-11-21T17:25:01.698Z,16.1
2017-11-21T17:30:01.861Z,16.1
2017-11-21T17:35:02.418Z,16.1
2017-11-21T17:40:01.172Z,16.1
2017-11-21T17:45:01.907Z,16.1
2017-11-21T17:50:01.892Z,16
2017-11-21T17:55:02.083Z,16
2017-11-21T18:00:01.428Z,16
2017-11-21T18:05:01.815Z,16
2017-11-21T18:10:02.514Z,16
2017-11-21T18:15:01.218Z,16.1
2017-11-21T18:20:02.226Z,16.1
2017-11-21T18:25:01.158Z,16.1
2017-11-21T18:30:02.371Z,16.1
2017-11-21T18:35:01.511Z,16.1
2017-11-21T18:40:01.982Z,16.1
2017-11-21T18:45:01.968Z,16.1
2017-11-21T18:50:02.047Z,16.1
2017-11-21T18:55:01.721Z,16.1
2017-11-21T19:00:02.035Z,16.1
2017-11-21T19:05:03.224Z,16.1
2017-11-21T19:10:01.961Z,16.2
2017-11-21T19:15:01.562Z,16.2
2017-11-21T19:20:01.642Z,16.2
2017-11-21T19:25:02.182Z,16.2
2017-11-21T19:30:01.453Z,16.2
2017-11-21T19:35:01.918Z,16.2
2017-11-21T19:40:02.621Z,16.2
2017-11-21T19:45:01.658Z,16.2
2017-11-21T19:50:02.030Z,16.2
2017-11-21T19:55:01.411Z,16.2
2017-11-21T20:00:02.411Z,16.2
2017-11-21T20:05:01.487Z,16.2
2017-11-21T20:10:01.545Z,16.2
2017-11-21T20:15:01.613Z,16.2
2017-11-21T20:20:02.026Z,16.2
2017-11-21T20:25:01.461Z,16.3
2017-11-21T20:30:01.528Z,16.3
2017-11-21T20:35:01.686Z,16.2
2017-11-21T20:40:01.556Z,16.2
2017-11-21T20:45:02.143Z,16.3
2017-11-21T20:50:01.659Z,16.2
2017-11-21T20:55:01.654Z,16.2
2017-11-21T21:00:01.824Z,16.3
2017-11-21T21:05:02.311Z,16.3
2017-11-21T21:10:01.173Z,16.2
2017-11-21T21:15:01.703Z,16.2
2017-11-21T21:20:01.938Z,16.2
2017-11-21T21:25:02.330Z,16.2
2017-11-21T21:30:01.354Z,16.2
2017-11-21T21:35:01.761Z,16.2
2017-11-21T21:40:01.741Z,16.2
2017-11-21T21:45:02.134Z,16.2
2017-11-21T21:50:01.837Z,16.2
2017-11-21T21:55:02.075Z,16.3
2017-11-21T22:00:01.341Z,16.2
2017-11-21T22:05:02.184Z,16.2
2017-11-21T22:10:01.963Z,16.3
2017-11-21T22:15:01.648Z,16.3
2017-11-21T22:20:02.121Z,16.2
2017-11-21T22:25:02.060Z,16.2
2017-11-21T22:30:02.117Z,16.3
2017-11-21T22:35:01.447Z,16.2
2017-11-21T22:40:01.888Z,16.2
2017-11-21T22:45:01.844Z,16.2
2017-11-21T22:50:02.370Z,16.2
2017-11-21T22:55:01.736Z,16.2
2017-11-21T23:00:02.560Z,16.2
2017-11-21T23:05:01.422Z,16.2
2017-11-21T23:10:01.449Z,16.2
2017-11-21T23:15:01.739Z,16.2
2017-11-21T23:20:03.170Z,16.1
2017-11-21T23:25:01.427Z,16.1
2017-11-21T23:30:02.117Z,16.1
2017-11-21T23:35:01.369Z,16.1
2017-11-21T23:40:01.915Z,16.1
2017-11-21T23:45:01.726Z,16.1
2017-11-21T23:50:01.530Z,16.1
2017-11-21T23:55:01.816Z,16
